createdAt,value
2017-10-26T00:00:35.248Z,11.23
2017-10-26T00:03:02.696Z,11.35
2017-10-26T00:05:30.080Z,11.42
2017-10-26T00:07:57.511Z,11.48
2017-10-26T00:10:24.896Z,11.52
2017-10-26T00:12:52.316Z,11.52
2017-10-26T00:15:19.704Z,11.45
2017-10-26T00:17:47.164Z,11.26
2017-10-26T00:20:14.571Z,11.37
2017-10-26T00:22:41.968Z,11.44
2017-10-26T00:25:09.404Z,11.36
2017-10-26T00:27:36.804Z,11.53
2017-10-26T00:30:04.244Z,11.47
2017-10-26T00:32:31.630Z,11.42
2017-10-26T00:34:59.351Z,11.37
2017-10-26T00:37:26.740Z,11.26
2017-10-26T00:39:54.160Z,11.27
2017-10-26T00:42:21.553Z,11.30
2017-10-26T00:44:48.971Z,11.31
2017-10-26T00:47:17.276Z,11.23
2017-10-26T00:49:44.726Z,11.17
2017-10-26T00:52:12.125Z,11.13
2017-10-26T00:54:39.547Z,11.13
2017-10-26T00:57:06.985Z,11.11
2017-10-26T00:59:34.388Z,11.12
2017-10-26T01:02:01.800Z,11.15
2017-10-26T01:04:29.223Z,11.03
2017-10-26T01:06:56.652Z,10.96
2017-10-26T01:09:24.062Z,10.99
2017-10-26T01:11:51.513Z,11.01
2017-10-26T01:14:18.912Z,10.98
2017-10-26T01:16:46.341Z,10.90
2017-10-26T01:19:13.767Z,10.90
2017-10-26T01:21:41.220Z,11.05
2017-10-26T01:24:08.596Z,10.97
2017-10-26T01:26:36.036Z,10.97
2017-10-26T01:29:03.465Z,11.07
2017-10-26T01:31:30.853Z,11.01
2017-10-26T01:33:58.289Z,11.01
2017-10-26T01:36:25.675Z,11.02
2017-10-26T01:38:53.112Z,11.06
2017-10-26T01:41:20.518Z,11.04
2017-10-26T01:43:47.936Z,10.95
2017-10-26T01:46:15.343Z,11.07
2017-10-26T01:48:42.768Z,11.09
2017-10-26T01:51:10.163Z,11.05
2017-10-26T01:53:37.586Z,11.05
2017-10-26T01:56:05.003Z,11.10
2017-10-26T01:58:32.448Z,11.13
2017-10-26T02:00:59.870Z,11.16
2017-10-26T02:03:27.273Z,11.16
2017-10-26T02:05:54.713Z,11.20
2017-10-26T02:08:22.133Z,11.15
2017-10-26T02:10:49.553Z,11.08
2017-10-26T02:13:16.955Z,11.01
2017-10-26T02:15:44.398Z,11.04
2017-10-26T02:18:11.808Z,10.86
2017-10-26T02:20:39.251Z,10.82
2017-10-26T02:23:06.633Z,10.86
2017-10-26T02:25:34.068Z,10.86
2017-10-26T02:28:01.453Z,10.84
2017-10-26T02:30:40.743Z,10.83
2017-10-26T02:33:08.139Z,10.67
2017-10-26T02:35:35.553Z,10.58
2017-10-26T02:38:03.042Z,10.54
2017-10-26T02:40:30.431Z,10.54
2017-10-26T02:42:57.839Z,10.48
2017-10-26T02:45:25.246Z,10.38
2017-10-26T02:47:52.709Z,10.29
2017-10-26T02:50:20.123Z,10.28
2017-10-26T02:52:47.568Z,10.34
2017-10-26T02:55:14.952Z,10.43
2017-10-26T02:57:42.376Z,10.66
2017-10-26T03:00:09.807Z,10.65
2017-10-26T03:02:37.211Z,10.53
2017-10-26T03:05:04.629Z,10.47
2017-10-26T03:07:32.032Z,10.46
2017-10-26T03:10:00.661Z,10.44
2017-10-26T03:12:28.053Z,10.42
2017-10-26T03:14:55.479Z,10.36
2017-10-26T03:17:22.901Z,10.20
2017-10-26T03:19:50.319Z,9.99
2017-10-26T03:22:17.741Z,10.06
2017-10-26T03:24:45.168Z,10.16
2017-10-26T03:27:12.573Z,10.16
2017-10-26T03:29:40.006Z,10.25
2017-10-26T03:32:07.409Z,10.36
2017-10-26T03:34:34.816Z,10.43
2017-10-26T03:37:02.229Z,10.39
2017-10-26T03:39:29.631Z,10.31
2017-10-26T03:41:57.076Z,10.45
2017-10-26T03:44:24.471Z,10.47
2017-10-26T03:46:51.922Z,10.48
2017-10-26T03:49:19.313Z,10.50
2017-10-26T03:51:46.735Z,10.47
2017-10-26T03:54:14.135Z,10.50
2017-10-26T03:56:41.613Z,10.45
2017-10-26T03:59:08.998Z,10.43
2017-10-26T04:01:36.403Z,10.47
2017-10-26T04:04:03.845Z,10.48
2017-10-26T04:06:31.264Z,10.42
2017-10-26T04:08:58.706Z,10.44
2017-10-26T04:11:26.133Z,10.54
2017-10-26T04:13:53.570Z,10.40
2017-10-26T04:16:20.955Z,10.48
2017-10-26T04:18:48.432Z,10.47
2017-10-26T04:21:15.833Z,10.35
2017-10-26T04:23:43.261Z,10.40
2017-10-26T04:26:10.704Z,10.38
2017-10-26T04:28:38.090Z,10.32
2017-10-26T04:31:05.533Z,10.36
2017-10-26T04:33:32.973Z,10.32
2017-10-26T04:36:00.394Z,10.36
2017-10-26T04:38:27.795Z,10.47
2017-10-26T04:40:55.212Z,10.44
2017-10-26T04:43:22.610Z,10.50
2017-10-26T04:45:50.043Z,10.56
2017-10-26T04:48:17.448Z,10.50
2017-10-26T04:50:44.879Z,10.49
2017-10-26T04:53:12.319Z,10.48
2017-10-26T04:55:39.759Z,10.46
2017-10-26T04:58:07.195Z,10.50
2017-10-26T05:00:34.598Z,10.50
2017-10-26T05:03:02.027Z,10.51
2017-10-26T05:05:29.446Z,10.49
2017-10-26T05:07:56.876Z,10.54
2017-10-26T05:10:24.275Z,10.56
2017-10-26T05:12:51.711Z,10.51
2017-10-26T05:15:19.145Z,10.48
2017-10-26T05:17:46.601Z,10.53
2017-10-26T05:20:14.033Z,10.39
2017-10-26T05:22:41.470Z,10.41
2017-10-26T05:25:08.903Z,10.46
2017-10-26T05:27:36.341Z,10.50
2017-10-26T05:30:03.761Z,10.54
2017-10-26T05:32:31.155Z,10.51
2017-10-26T05:34:58.589Z,10.38
2017-10-26T05:37:26.020Z,10.41
2017-10-26T05:39:53.457Z,10.34
2017-10-26T05:42:20.882Z,10.33
2017-10-26T05:44:48.317Z,10.38
2017-10-26T05:47:15.740Z,10.34
2017-10-26T05:49:43.161Z,10.38
2017-10-26T05:52:10.995Z,10.36
2017-10-26T05:54:38.450Z,10.40
2017-10-26T05:57:05.889Z,10.39
2017-10-26T05:59:33.287Z,10.37
2017-10-26T06:02:00.719Z,10.39
2017-10-26T06:04:28.124Z,10.54
2017-10-26T06:06:55.530Z,10.53
2017-10-26T06:09:23.043Z,10.43
2017-10-26T06:11:50.482Z,10.45
2017-10-26T06:14:17.955Z,10.59
2017-10-26T06:16:45.363Z,10.59
2017-10-26T06:19:12.829Z,10.55
2017-10-26T06:21:40.227Z,10.63
2017-10-26T06:24:07.695Z,10.70
2017-10-26T06:26:35.105Z,10.79
2017-10-26T06:29:02.536Z,10.72
2017-10-26T06:31:29.955Z,10.35
2017-10-26T06:33:57.394Z,10.09
2017-10-26T06:36:24.803Z,10.02
2017-10-26T06:38:52.219Z,9.99
2017-10-26T06:41:19.684Z,10.05
2017-10-26T06:43:47.094Z,10.19
2017-10-26T06:46:14.539Z,10.38
2017-10-26T06:48:41.973Z,10.12
2017-10-26T06:51:09.372Z,9.93
2017-10-26T06:53:36.799Z,9.71
2017-10-26T06:56:04.244Z,10.04
2017-10-26T06:58:31.663Z,10.21
2017-10-26T07:00:59.090Z,10.33
2017-10-26T07:03:27.432Z,10.49
2017-10-26T07:05:54.875Z,10.62
2017-10-26T07:08:23.278Z,10.67
2017-10-26T07:10:50.692Z,10.57
2017-10-26T07:13:18.144Z,10.51
2017-10-26T07:15:45.556Z,10.60
2017-10-26T07:18:12.965Z,10.60
2017-10-26T07:20:40.925Z,10.76
2017-10-26T07:23:08.352Z,10.70
2017-10-26T07:25:36.590Z,10.72
2017-10-26T07:28:03.995Z,10.79
2017-10-26T07:30:31.437Z,10.80
2017-10-26T07:32:58.873Z,10.73
2017-10-26T07:35:27.214Z,10.71
2017-10-26T07:37:55.404Z,10.74
2017-10-26T07:40:22.888Z,10.82
2017-10-26T07:42:50.596Z,10.80
2017-10-26T07:45:18.039Z,10.90
2017-10-26T07:47:45.455Z,10.97
2017-10-26T07:50:12.924Z,11.04
2017-10-26T07:52:40.336Z,11.05
2017-10-26T07:55:07.780Z,10.94
2017-10-26T07:57:35.212Z,11.04
2017-10-26T08:00:02.655Z,11.07
2017-10-26T08:02:30.126Z,11.17
2017-10-26T08:04:58.185Z,11.23
2017-10-26T08:07:25.938Z,11.30
2017-10-26T08:09:53.370Z,11.37
2017-10-26T08:12:21.522Z,11.33
2017-10-26T08:14:50.265Z,11.28
2017-10-26T08:17:18.721Z,11.09
2017-10-26T08:19:46.204Z,11.14
2017-10-26T08:22:13.648Z,11.32
2017-10-26T08:24:41.979Z,11.26
2017-10-26T08:27:10.902Z,11.44
2017-10-26T08:29:38.301Z,11.61
2017-10-26T08:32:05.827Z,11.66
2017-10-26T08:34:33.261Z,11.70
2017-10-26T08:37:00.717Z,11.82
2017-10-26T08:39:28.171Z,11.95
2017-10-26T08:41:55.618Z,12.04
2017-10-26T08:44:23.021Z,11.96
2017-10-26T08:46:50.460Z,11.96
2017-10-26T08:49:17.916Z,12.05
2017-10-26T08:51:45.308Z,12.21
2017-10-26T08:54:12.812Z,12.20
2017-10-26T08:56:40.237Z,12.16
2017-10-26T08:59:07.709Z,12.33
2017-10-26T09:01:35.108Z,12.44
2017-10-26T09:04:02.551Z,12.46
2017-10-26T09:06:29.986Z,12.39
2017-10-26T09:08:57.417Z,12.51
2017-10-26T09:11:24.819Z,12.55
2017-10-26T09:13:52.289Z,12.68
2017-10-26T09:16:19.730Z,12.72
2017-10-26T09:18:47.225Z,12.80
2017-10-26T09:21:14.692Z,12.69
2017-10-26T09:23:42.964Z,12.74
2017-10-26T09:26:10.440Z,12.78
2017-10-26T09:28:37.876Z,12.81
2017-10-26T09:31:05.384Z,12.90
2017-10-26T09:33:38.704Z,12.99
2017-10-26T09:36:06.151Z,13.08
2017-10-26T09:38:33.564Z,13.17
2017-10-26T09:41:01.201Z,13.28
2017-10-26T09:43:28.662Z,13.42
2017-10-26T09:45:56.089Z,13.53
2017-10-26T09:48:23.524Z,13.58
2017-10-26T09:50:50.943Z,13.63
2017-10-26T09:53:18.402Z,13.72
2017-10-26T09:55:45.808Z,13.81
2017-10-26T09:58:13.199Z,13.83
2017-10-26T10:00:40.639Z,14.01
2017-10-26T10:03:08.037Z,13.87
2017-10-26T10:05:35.464Z,13.78
2017-10-26T10:08:02.867Z,13.87
2017-10-26T10:10:30.297Z,13.97
2017-10-26T10:12:57.707Z,14.03
2017-10-26T10:15:25.155Z,14.12
2017-10-26T10:17:52.587Z,14.16
2017-10-26T10:20:20.137Z,14.24
2017-10-26T10:22:47.545Z,14.18
2017-10-26T10:25:14.960Z,14.19
2017-10-26T10:27:42.365Z,14.16
2017-10-26T10:30:09.815Z,13.93
2017-10-26T10:32:37.215Z,14.02
2017-10-26T10:35:05.510Z,14.17
2017-10-26T10:37:34.293Z,14.10
2017-10-26T10:40:01.684Z,14.13
2017-10-26T10:42:30.025Z,14.23
2017-10-26T10:44:57.438Z,14.36
2017-10-26T10:47:24.861Z,14.47
2017-10-26T10:49:52.295Z,14.49
2017-10-26T10:52:19.743Z,14.54
2017-10-26T10:54:47.177Z,14.66
2017-10-26T10:57:14.588Z,14.64
2017-10-26T10:59:47.611Z,14.79
2017-10-26T11:02:15.860Z,14.88
2017-10-26T11:04:44.016Z,14.95
2017-10-26T11:07:11.452Z,15.03
2017-10-26T11:09:38.904Z,14.96
2017-10-26T11:12:06.308Z,15.07
2017-10-26T11:14:33.740Z,15.16
2017-10-26T11:17:01.207Z,15.20
2017-10-26T11:19:28.627Z,15.30
2017-10-26T11:21:56.456Z,15.36
2017-10-26T11:24:23.876Z,15.44
2017-10-26T11:26:51.335Z,15.46
2017-10-26T11:29:18.757Z,15.48
2017-10-26T11:31:46.403Z,15.54
2017-10-26T11:34:13.851Z,15.62
2017-10-26T11:36:41.284Z,15.70
2017-10-26T11:39:08.714Z,15.75
2017-10-26T11:41:36.151Z,15.81
2017-10-26T11:44:03.572Z,15.82
2017-10-26T11:46:31.074Z,15.93
2017-10-26T11:48:58.548Z,15.93
2017-10-26T11:51:26.053Z,15.93
2017-10-26T11:53:53.534Z,16.00
2017-10-26T11:56:21.840Z,15.98
2017-10-26T11:58:49.279Z,16.04
2017-10-26T12:01:16.887Z,16.05
2017-10-26T12:03:44.410Z,16.07
2017-10-26T12:06:11.802Z,16.20
2017-10-26T12:08:39.226Z,16.24
2017-10-26T12:11:06.732Z,16.34
2017-10-26T12:13:34.205Z,16.34
2017-10-26T12:16:01.670Z,16.38
2017-10-26T12:18:29.071Z,16.46
2017-10-26T12:20:56.492Z,16.56
2017-10-26T12:23:23.943Z,16.61
2017-10-26T12:25:52.384Z,16.69
2017-10-26T12:28:19.804Z,16.73
2017-10-26T12:30:47.236Z,16.74
2017-10-26T12:33:14.768Z,16.78
2017-10-26T12:35:42.230Z,16.70
2017-10-26T12:38:09.656Z,16.73
2017-10-26T12:40:37.110Z,16.77
2017-10-26T12:43:04.552Z,16.86
2017-10-26T12:45:32.000Z,16.84
2017-10-26T12:47:59.424Z,16.86
2017-10-26T12:50:26.898Z,16.83
2017-10-26T12:52:54.306Z,16.79
2017-10-26T12:55:21.746Z,16.72
2017-10-26T12:57:49.184Z,16.81
2017-10-26T13:00:16.597Z,16.85
2017-10-26T13:02:44.531Z,16.70
2017-10-26T13:05:11.965Z,16.60
2017-10-26T13:07:39.419Z,16.57
2017-10-26T13:10:08.415Z,16.09
2017-10-26T13:12:36.028Z,16.66
2017-10-26T13:15:03.466Z,16.68
2017-10-26T13:17:30.887Z,16.70
2017-10-26T13:19:58.343Z,16.78
2017-10-26T13:22:25.773Z,16.77
2017-10-26T13:24:53.233Z,16.90
2017-10-26T13:27:21.485Z,16.91
2017-10-26T13:29:48.900Z,16.91
2017-10-26T13:32:16.349Z,16.88
2017-10-26T13:34:44.029Z,16.90
2017-10-26T13:37:11.502Z,16.89
2017-10-26T13:39:39.068Z,16.98
2017-10-26T13:42:06.482Z,17.13
2017-10-26T13:44:34.834Z,17.27
2017-10-26T13:47:02.238Z,17.37
2017-10-26T13:49:29.676Z,17.39
2017-10-26T13:51:57.098Z,17.54
2017-10-26T13:54:24.589Z,17.31
2017-10-26T13:56:51.984Z,17.32
2017-10-26T13:59:19.400Z,17.28
2017-10-26T14:01:46.819Z,17.29
2017-10-26T14:04:14.276Z,17.33
2017-10-26T14:06:41.750Z,17.35
2017-10-26T14:09:09.780Z,17.39
2017-10-26T14:11:37.239Z,17.37
2017-10-26T14:14:04.647Z,17.51
2017-10-26T14:16:32.218Z,17.51
2017-10-26T14:18:59.670Z,17.61
2017-10-26T14:21:27.089Z,17.55
2017-10-26T14:23:54.534Z,17.60
2017-10-26T14:26:21.950Z,17.63
2017-10-26T14:28:49.424Z,17.68
2017-10-26T14:31:16.859Z,17.63
2017-10-26T14:33:44.311Z,17.65
2017-10-26T14:36:11.723Z,17.71
2017-10-26T14:38:39.161Z,17.43
2017-10-26T14:41:06.623Z,17.47
2017-10-26T14:43:34.131Z,17.53
2017-10-26T14:46:01.537Z,17.53
2017-10-26T14:48:28.987Z,17.44
2017-10-26T14:50:56.431Z,17.48
2017-10-26T14:53:23.888Z,17.43
2017-10-26T14:55:51.304Z,17.42
2017-10-26T14:58:18.776Z,17.50
2017-10-26T15:00:46.250Z,17.50
2017-10-26T15:03:13.685Z,17.49
2017-10-26T15:05:41.120Z,17.47
2017-10-26T15:08:08.572Z,17.10
2017-10-26T15:10:36.040Z,17.49
2017-10-26T15:13:03.467Z,17.42
2017-10-26T15:15:30.897Z,17.44
2017-10-26T15:17:58.319Z,17.41
2017-10-26T15:20:25.803Z,17.43
2017-10-26T15:22:53.281Z,17.29
2017-10-26T15:25:20.716Z,17.40
2017-10-26T15:27:48.182Z,17.45
2017-10-26T15:30:15.605Z,17.42
2017-10-26T15:32:43.029Z,17.36
2017-10-26T15:35:10.516Z,17.35
2017-10-26T15:37:37.942Z,17.31
2017-10-26T15:40:05.458Z,17.25
2017-10-26T15:42:32.997Z,17.20
2017-10-26T15:45:00.449Z,17.20
2017-10-26T15:47:27.920Z,17.12
2017-10-26T15:49:55.340Z,16.98
2017-10-26T15:52:22.820Z,17.14
2017-10-26T15:54:50.286Z,16.99
2017-10-26T15:57:17.696Z,17.03
2017-10-26T15:59:45.141Z,17.02
2017-10-26T16:02:12.580Z,17.03
2017-10-26T16:04:40.100Z,17.03
2017-10-26T16:07:07.552Z,17.01
2017-10-26T16:09:35.019Z,16.98
2017-10-26T16:12:02.507Z,16.93
2017-10-26T16:14:29.964Z,16.89
2017-10-26T16:16:57.419Z,16.75
2017-10-26T16:19:24.974Z,16.76
2017-10-26T16:21:52.506Z,16.72
2017-10-26T16:24:19.928Z,16.71
2017-10-26T16:26:47.382Z,16.28
2017-10-26T16:29:14.819Z,16.51
2017-10-26T16:31:42.233Z,16.41
2017-10-26T16:34:09.695Z,16.36
2017-10-26T16:36:37.137Z,16.37
2017-10-26T16:39:04.569Z,16.35
2017-10-26T16:41:32.041Z,16.24
2017-10-26T16:43:59.480Z,16.26
2017-10-26T16:46:26.943Z,16.25
2017-10-26T16:48:54.362Z,16.21
2017-10-26T16:51:21.860Z,16.23
2017-10-26T16:53:49.303Z,16.23
2017-10-26T16:56:16.765Z,16.21
2017-10-26T16:58:44.209Z,16.09
2017-10-26T17:01:11.633Z,16.12
2017-10-26T17:03:39.085Z,16.11
2017-10-26T17:06:06.503Z,16.06
2017-10-26T17:08:33.938Z,16.06
2017-10-26T17:11:01.373Z,16.06
2017-10-26T17:13:28.800Z,16.04
2017-10-26T17:15:56.228Z,16.03
2017-10-26T17:18:23.686Z,16.02
2017-10-26T17:20:51.097Z,16.03
2017-10-26T17:23:18.547Z,16.00
2017-10-26T17:25:45.980Z,15.91
2017-10-26T17:28:13.430Z,15.99
2017-10-26T17:30:40.889Z,15.95
2017-10-26T17:33:08.300Z,15.96
2017-10-26T17:35:35.755Z,15.92
2017-10-26T17:38:03.157Z,15.89
2017-10-26T17:40:30.627Z,15.81
2017-10-26T17:42:58.093Z,15.74
2017-10-26T17:45:25.510Z,15.73
2017-10-26T17:47:52.977Z,15.73
2017-10-26T17:50:20.363Z,15.68
2017-10-26T17:52:47.796Z,15.66
2017-10-26T17:55:15.230Z,15.63
2017-10-26T17:57:42.674Z,15.53
2017-10-26T18:00:10.080Z,15.41
2017-10-26T18:02:37.534Z,15.42
2017-10-26T18:05:04.944Z,15.42
2017-10-26T18:07:32.415Z,15.39
2017-10-26T18:09:59.838Z,15.40
2017-10-26T18:12:27.258Z,15.39
2017-10-26T18:14:54.681Z,15.34
2017-10-26T18:17:22.169Z,15.30
2017-10-26T18:19:49.616Z,15.28
2017-10-26T18:22:17.006Z,15.27
2017-10-26T18:24:44.440Z,15.25
2017-10-26T18:27:11.875Z,15.24
2017-10-26T18:29:39.370Z,15.20
2017-10-26T18:32:06.808Z,15.16
2017-10-26T18:34:34.229Z,15.16
2017-10-26T18:37:01.704Z,15.15
2017-10-26T18:39:29.135Z,15.14
2017-10-26T18:41:56.571Z,15.15
2017-10-26T18:44:23.988Z,15.12
2017-10-26T18:46:51.439Z,15.08
2017-10-26T18:49:18.861Z,15.06
2017-10-26T18:51:46.304Z,15.04
2017-10-26T18:54:13.707Z,15.02
2017-10-26T18:56:41.163Z,15.01
2017-10-26T18:59:08.633Z,14.98
2017-10-26T19:01:36.087Z,14.96
2017-10-26T19:04:03.532Z,14.88
2017-10-26T19:06:30.934Z,14.86
2017-10-26T19:08:58.376Z,14.91
2017-10-26T19:11:25.815Z,14.87
2017-10-26T19:13:53.270Z,14.82
2017-10-26T19:16:20.688Z,14.79
2017-10-26T19:18:48.159Z,14.77
2017-10-26T19:21:15.593Z,14.76
2017-10-26T19:23:43.019Z,14.79
2017-10-26T19:26:10.468Z,14.76
2017-10-26T19:28:37.889Z,14.74
2017-10-26T19:31:05.329Z,14.72
2017-10-26T19:33:32.750Z,14.62
2017-10-26T19:36:00.170Z,14.65
2017-10-26T19:38:27.607Z,14.65
2017-10-26T19:40:55.039Z,14.64
2017-10-26T19:43:22.545Z,14.66
2017-10-26T19:45:49.969Z,14.66
2017-10-26T19:48:17.412Z,14.67
2017-10-26T19:50:44.829Z,14.68
2017-10-26T19:53:12.295Z,14.71
2017-10-26T19:55:39.726Z,14.68
2017-10-26T19:58:07.190Z,14.66
2017-10-26T20:00:34.647Z,14.66
2017-10-26T20:03:02.052Z,14.67
2017-10-26T20:05:29.487Z,14.62
2017-10-26T20:07:56.896Z,14.58
2017-10-26T20:10:24.347Z,14.56
2017-10-26T20:12:51.756Z,14.47
2017-10-26T20:15:19.210Z,14.49
2017-10-26T20:17:46.620Z,14.45
2017-10-26T20:20:14.077Z,14.30
2017-10-26T20:22:41.497Z,14.25
2017-10-26T20:25:08.912Z,14.20
2017-10-26T20:27:36.971Z,14.19
2017-10-26T20:30:04.419Z,14.17
2017-10-26T20:32:31.845Z,14.19
2017-10-26T20:34:59.643Z,14.17
2017-10-26T20:37:27.116Z,14.13
2017-10-26T20:39:54.551Z,14.12
2017-10-26T20:42:22.021Z,14.08
2017-10-26T20:44:49.435Z,14.03
2017-10-26T20:47:16.842Z,14.00
2017-10-26T20:49:49.845Z,13.98
2017-10-26T20:52:22.963Z,13.95
2017-10-26T20:54:55.907Z,13.92
2017-10-26T20:57:28.955Z,13.64
2017-10-26T21:00:01.870Z,13.93
2017-10-26T21:02:34.956Z,13.91
2017-10-26T21:05:07.865Z,13.89
2017-10-26T21:07:40.779Z,13.91
2017-10-26T21:10:13.706Z,14.00
2017-10-26T21:12:47.160Z,14.03
2017-10-26T21:15:14.696Z,14.04
2017-10-26T21:17:42.109Z,13.93
2017-10-26T21:20:09.533Z,14.01
2017-10-26T21:22:36.964Z,13.98
2017-10-26T21:25:04.495Z,13.91
2017-10-26T21:27:31.977Z,13.91
2017-10-26T21:29:59.402Z,13.91
2017-10-26T21:32:26.827Z,13.93
2017-10-26T21:34:54.242Z,13.91
2017-10-26T21:37:21.700Z,13.79
2017-10-26T21:39:49.281Z,13.73
2017-10-26T23:23:10.756Z,13.36
2017-10-26T23:25:38.223Z,13.57
2017-10-26T23:28:05.618Z,13.60
2017-10-26T23:30:33.075Z,13.42
2017-10-26T23:33:00.501Z,13.19
2017-10-26T23:35:27.957Z,12.95
2017-10-26T23:37:55.373Z,12.95
2017-10-26T23:40:22.854Z,12.89
2017-10-26T23:42:50.292Z,12.81
2017-10-26T23:45:17.720Z,12.77
2017-10-26T23:47:45.155Z,12.74
2017-10-26T23:50:12.560Z,12.76
2017-10-26T23:52:40.034Z,12.76
2017-10-26T23:55:07.461Z,12.83
2017-10-26T23:57:34.895Z,13.02
